Time;durP1;ratioP1;P1;durP2;ratioP2;P2;SDS_P1;SDS_P2;PMS_P1;PMS_P2;Temp;Humidity;BMP_temperature;BMP_pressure;BME280_temperature;BME280_humidity;BME280_pressure;Samples;Min_cycle;Max_cycle;Signal;HPM_P1;HPM_P2
2023/06/07 00:00:07;;;;;;;15.68;7.03;;;;;;;19.70;50.63;101900.28;5070327;28;20457;-65
2023/06/07 00:02:32;;;;;;;11.43;6.80;;;;;;;19.60;50.28;101892.69;5069494;28;20105;-65
2023/06/07 00:04:58;;;;;;;15.05;7.15;;;;;;;19.55;50.67;101896.38;5064432;28;20138;-64
2023/06/07 00:07:23;;;;;;;11.55;6.75;;;;;;;19.47;50.91;101899.78;5090466;28;20024;-64
2023/06/07 00:09:48;;;;;;;9.18;6.78;;;;;;;19.47;50.94;101907.41;5081381;28;20473;-64
2023/06/07 00:12:13;;;;;;;9.85;7.03;;;;;;;19.50;50.94;101902.03;5056659;28;20055;-64
2023/06/07 00:14:39;;;;;;;9.93;6.72;;;;;;;19.54;50.77;101907.94;5071422;28;20494;-65
2023/06/07 00:17:04;;;;;;;9.52;6.78;;;;;;;19.48;50.86;101904.28;5090424;28;20027;-65
2023/06/07 00:19:29;;;;;;;10.25;7.07;;;;;;;19.51;50.54;101902.88;5091726;28;20032;-65
2023/06/07 00:21:55;;;;;;;14.02;7.18;;;;;;;19.47;50.71;101913.88;5077094;28;20056;-65
2023/06/07 00:24:21;;;;;;;10.15;7.03;;;;;;;19.52;50.51;101911.03;5070220;28;20654;-65
2023/06/07 00:26:47;;;;;;;12.35;6.95;;;;;;;19.49;50.66;101911.63;5057462;28;20036;-65
2023/06/07 00:29:14;;;;;;;13.55;6.93;;;;;;;19.44;50.58;101896.69;5070918;28;20038;-64
2023/06/07 00:31:39;;;;;;;15.90;7.15;;;;;;;19.47;50.53;101910.22;5073489;28;20171;-64
2023/06/07 00:34:05;;;;;;;14.45;7.25;;;;;;;19.47;50.24;101907.41;5069890;28;20460;-64
2023/06/07 00:36:30;;;;;;;13.27;7.40;;;;;;;19.40;50.57;101906.84;5071208;28;20357;-65
2023/06/07 00:38:56;;;;;;;14.55;6.90;;;;;;;19.42;50.56;101913.06;5063910;28;20032;-65
2023/06/07 00:41:21;;;;;;;12.43;7.18;;;;;;;19.38;50.38;101909.97;5090666;28;20107;-64
2023/06/07 00:43:48;;;;;;;13.65;7.10;;;;;;;19.36;50.51;101901.78;5080855;28;20392;-64
2023/06/07 00:46:20;;;;;;;11.88;7.03;;;;;;;19.29;50.78;101897.59;5073715;28;20384;-64
2023/06/07 00:48:47;;;;;;;12.95;7.03;;;;;;;19.26;50.60;101899.03;5070040;28;20030;-64
2023/06/07 00:51:12;;;;;;;12.13;7.70;;;;;;;19.30;50.67;101899.31;5078941;28;20032;-64
2023/06/07 00:53:38;;;;;;;11.07;7.25;;;;;;;19.16;50.73;101893.41;5063426;28;20037;-64
2023/06/07 00:56:05;;;;;;;15.27;7.57;;;;;;;19.11;50.92;101901.88;5060919;28;20025;-64
2023/06/07 00:58:31;;;;;;;12.23;7.32;;;;;;;19.09;51.07;101892.88;5069304;28;20070;-64
2023/06/07 01:00:58;;;;;;;10.68;7.03;;;;;;;19.02;51.21;101895.13;5087407;28;20058;-64
2023/06/07 01:03:23;;;;;;;11.90;7.78;;;;;;;18.89;51.47;101897.41;5090777;28;20042;-64
2023/06/07 01:05:50;;;;;;;14.70;7.43;;;;;;;18.94;51.57;101890.09;5083420;28;20475;-64
2023/06/07 01:08:15;;;;;;;12.75;7.40;;;;;;;18.89;51.32;101896.56;5049746;28;20025;-64
2023/06/07 01:10:41;;;;;;;12.68;7.72;;;;;;;18.94;51.31;101901.34;5082641;28;20035;-64
2023/06/07 01:13:07;;;;;;;13.50;7.50;;;;;;;18.94;51.16;101904.16;5074347;28;20079;-64
2023/06/07 01:15:33;;;;;;;10.98;7.22;;;;;;;18.96;51.06;101899.94;5069423;28;20031;-64
2023/06/07 01:17:59;;;;;;;11.35;7.30;;;;;;;18.91;51.20;101901.94;5085745;28;20067;-64
2023/06/07 01:20:26;;;;;;;13.65;7.03;;;;;;;18.93;51.18;101896.84;5089749;28;20495;-64
2023/06/07 01:22:56;;;;;;;10.77;6.93;;;;;;;18.78;51.72;101904.16;5070925;28;20033;-64
2023/06/07 01:25:22;;;;;;;13.45;7.00;;;;;;;18.86;51.31;101880.25;5081935;28;20032;-64
2023/06/07 01:27:52;;;;;;;14.48;7.55;;;;;;;18.81;51.30;101888.72;5086108;28;20050;-64
2023/06/07 01:30:19;;;;;;;10.70;7.00;;;;;;;18.75;51.33;101884.22;5069542;28;20031;-64
2023/06/07 01:32:46;;;;;;;12.00;7.10;;;;;;;18.81;51.16;101883.91;5065351;28;20108;-64
2023/06/07 01:35:12;;;;;;;14.55;7.57;;;;;;;18.73;51.26;101887.31;5077770;28;20471;-64
2023/06/07 01:37:39;;;;;;;13.20;7.57;;;;;;;18.73;51.33;101897.72;5088044;28;20071;-64
2023/06/07 01:40:06;;;;;;;12.13;7.10;;;;;;;18.74;51.38;101888.16;5065769;28;20047;-64
2023/06/07 01:42:33;;;;;;;13.73;7.35;;;;;;;18.75;51.14;101885.06;5068513;28;20028;-64
2023/06/07 01:44:59;;;;;;;14.57;7.63;;;;;;;18.69;51.26;101888.13;5072523;28;20048;-64
2023/06/07 01:47:25;;;;;;;13.55;7.47;;;;;;;18.67;51.34;101888.44;5089164;28;20035;-65
2023/06/07 01:49:50;;;;;;;12.45;7.07;;;;;;;18.62;51.40;101883.63;5066134;28;20039;-65
2023/06/07 01:52:15;;;;;;;13.70;7.60;;;;;;;18.59;51.69;101884.22;5086744;28;20032;-64
2023/06/07 01:54:42;;;;;;;10.20;7.63;;;;;;;18.56;51.54;101886.75;5078479;28;20064;-65
2023/06/07 01:57:29;;;;;;;10.82;7.80;;;;;;;18.62;51.32;101894.88;5049119;28;20033;-64
2023/06/07 02:00:02;;;;;;;12.95;7.63;;;;;;;18.62;51.33;101877.16;5078604;28;20769;-64
2023/06/07 02:02:48;;;;;;;13.40;7.80;;;;;;;18.53;51.51;101878.88;5087581;28;20048;-65
2023/06/07 02:05:17;;;;;;;15.25;7.30;;;;;;;18.49;51.71;101880.56;5055419;28;20098;-64
2023/06/07 02:07:53;;;;;;;14.02;7.40;;;;;;;18.32;52.14;101866.78;5064046;28;20527;-64
2023/06/07 02:10:21;;;;;;;14.48;7.85;;;;;;;18.37;52.07;101881.66;5067132;28;20036;-64
2023/06/07 02:12:49;;;;;;;12.77;7.63;;;;;;;18.29;52.00;101885.03;5071721;28;20036;-65
2023/06/07 02:15:15;;;;;;;12.82;7.63;;;;;;;18.27;52.18;101873.22;5078778;28;20103;-64
2023/06/07 02:17:51;;;;;;;14.25;7.85;;;;;;;18.21;52.25;101884.75;5070668;28;20403;-64
2023/06/07 02:20:17;;;;;;;12.07;7.40;;;;;;;18.23;52.30;101876.88;5053569;28;20484;-65
2023/06/07 02:22:43;;;;;;;13.10;8.20;;;;;;;18.30;52.02;101878.28;5053318;28;20028;-64
2023/06/07 02:25:08;;;;;;;14.98;7.70;;;;;;;18.22;52.13;101881.66;5064418;28;20055;-64
2023/06/07 02:27:34;;;;;;;12.57;8.02;;;;;;;18.12;52.45;101881.66;5078349;28;20776;-66
2023/06/07 02:30:00;;;;;;;13.55;7.68;;;;;;;18.23;52.31;101882.50;5072941;28;20042;-65
2023/06/07 02:32:26;;;;;;;14.60;7.80;;;;;;;18.21;52.18;101882.78;5072530;28;20029;-64
2023/06/07 02:34:51;;;;;;;14.00;8.60;;;;;;;18.18;52.30;101880.53;5073433;28;20388;-65
2023/06/07 02:37:17;;;;;;;14.18;7.45;;;;;;;18.14;52.38;101879.41;5089302;28;20024;-64
2023/06/07 02:39:42;;;;;;;13.00;8.52;;;;;;;18.15;52.32;101887.53;5092889;28;20024;-65
2023/06/07 02:42:08;;;;;;;14.55;8.27;;;;;;;18.13;52.50;101883.34;5072270;28;20029;-65
2023/06/07 02:44:33;;;;;;;14.80;8.20;;;;;;;18.12;52.73;101882.50;5066183;28;20029;-65
2023/06/07 02:46:58;;;;;;;14.45;8.05;;;;;;;18.00;52.53;101881.06;5072096;28;20028;-65
2023/06/07 02:49:24;;;;;;;14.02;8.32;;;;;;;18.01;52.68;101869.56;5073117;28;20029;-64
2023/06/07 02:51:49;;;;;;;16.17;9.13;;;;;;;18.02;52.60;101876.03;5064709;28;20718;-65
2023/06/07 02:54:19;;;;;;;17.30;8.88;;;;;;;18.05;52.60;101878.28;5061360;28;20073;-64
2023/06/07 02:56:44;;;;;;;12.85;8.40;;;;;;;18.03;52.61;101881.34;5071867;28;20029;-65
2023/06/07 02:59:10;;;;;;;14.02;8.48;;;;;;;17.91;52.63;101875.16;5055126;28;20047;-64
2023/06/07 03:01:37;;;;;;;13.30;8.63;;;;;;;17.96;52.71;101880.78;5070213;28;20047;-64
2023/06/07 03:04:03;;;;;;;14.15;8.55;;;;;;;17.87;52.82;101874.84;5093150;28;20028;-65
2023/06/07 03:06:29;;;;;;;12.85;8.25;;;;;;;17.93;52.79;101883.31;5089930;28;20020;-66
2023/06/07 03:08:56;;;;;;;16.13;8.77;;;;;;;17.87;52.93;101880.47;5069234;28;20111;-66
2023/06/07 03:11:22;;;;;;;17.48;8.65;;;;;;;17.81;52.69;101878.78;5072438;28;20032;-66
2023/06/07 03:13:47;;;;;;;15.57;8.45;;;;;;;17.76;53.15;101880.72;5065196;28;20049;-66
2023/06/07 03:16:12;;;;;;;15.85;8.82;;;;;;;17.80;53.11;101882.72;5064707;28;20051;-65
2023/06/07 03:18:37;;;;;;;14.95;8.40;;;;;;;17.81;53.07;101889.19;5077732;28;20108;-66
2023/06/07 03:21:03;;;;;;;14.35;8.70;;;;;;;17.85;52.92;101881.88;5071575;28;20032;-65
2023/06/07 03:23:30;;;;;;;12.45;7.93;;;;;;;17.81;53.02;101875.97;5052891;28;20029;-65
2023/06/07 03:25:56;;;;;;;12.80;8.35;;;;;;;17.76;52.80;101887.19;5080059;28;20035;-66
2023/06/07 03:28:22;;;;;;;16.33;8.18;;;;;;;17.77;53.06;101885.25;5090424;28;20027;-66
2023/06/07 03:30:48;;;;;;;13.18;7.70;;;;;;;17.73;53.10;101886.88;5064136;28;20383;-66
2023/06/07 03:33:13;;;;;;;12.20;8.05;;;;;;;17.62;53.49;101883.19;5065669;28;20033;-65
2023/06/07 03:35:39;;;;;;;12.88;7.68;;;;;;;17.66;53.43;101889.94;5069268;28;20126;-66
2023/06/07 03:38:05;;;;;;;15.20;8.52;;;;;;;17.60;53.40;101885.41;5061284;28;20158;-66
2023/06/07 03:40:30;;;;;;;16.33;8.27;;;;;;;17.52;53.48;101885.94;5069409;28;20107;-65
2023/06/07 03:42:55;;;;;;;14.90;8.15;;;;;;;17.67;53.39;101898.06;5070914;28;20032;-65
2023/06/07 03:45:21;;;;;;;13.38;8.20;;;;;;;17.59;53.57;101890.19;5055618;28;20497;-66
2023/06/07 03:47:46;;;;;;;16.77;8.07;;;;;;;17.60;53.58;101882.59;5051887;28;20033;-65
2023/06/07 03:50:11;;;;;;;11.82;7.93;;;;;;;17.64;53.35;101890.22;5053568;28;20107;-66
2023/06/07 03:52:37;;;;;;;15.93;8.15;;;;;;;17.63;53.35;101890.47;5059021;28;20046;-66
2023/06/07 03:55:02;;;;;;;14.05;7.78;;;;;;;17.61;53.30;101896.38;5062437;28;20119;-65
2023/06/07 03:57:28;;;;;;;16.08;7.75;;;;;;;17.51;53.52;101887.06;5071436;28;20689;-66
2023/06/07 03:59:53;;;;;;;13.05;7.97;;;;;;;17.58;53.33;101890.47;5071497;28;20400;-65
2023/06/07 04:02:18;;;;;;;12.10;7.97;;;;;;;17.48;53.67;101893.22;5051228;28;20036;-66
2023/06/07 04:04:44;;;;;;;13.90;8.25;;;;;;;17.51;53.57;101889.88;5060869;28;20047;-65
2023/06/07 04:07:10;;;;;;;15.68;8.07;;;;;;;17.47;53.61;101891.56;5072147;28;20036;-65
2023/06/07 04:09:35;;;;;;;16.05;7.82;;;;;;;17.38;54.07;101894.88;5060940;28;20035;-65
2023/06/07 04:12:01;;;;;;;14.00;8.00;;;;;;;17.43;53.75;101891.25;5063659;28;20614;-65
2023/06/07 04:14:27;;;;;;;12.75;8.40;;;;;;;17.35;53.82;101901.03;5087178;28;20110;-65
2023/06/07 04:16:52;;;;;;;14.55;7.70;;;;;;;17.33;54.01;101891.19;5075714;28;20046;-66
2023/06/07 04:19:17;;;;;;;13.63;8.15;;;;;;;17.33;54.15;101892.06;5081823;28;20374;-63
2023/06/07 04:21:43;;;;;;;15.57;8.13;;;;;;;17.33;54.11;101896.81;5077441;28;20056;-63
2023/06/07 04:24:08;;;;;;;16.25;8.05;;;;;;;17.29;54.11;101890.06;5073266;28;20037;-64
2023/06/07 04:26:33;;;;;;;14.13;7.70;;;;;;;17.25;54.40;101894.53;5074432;28;20469;-64
2023/06/07 04:28:59;;;;;;;14.77;7.90;;;;;;;17.23;54.46;101889.19;5057305;28;20079;-65
2023/06/07 04:31:29;;;;;;;14.13;8.40;;;;;;;17.18;54.72;101886.38;5072227;28;20059;-64
2023/06/07 04:33:57;;;;;;;12.13;7.25;;;;;;;17.26;54.48;101899.03;5086628;28;20028;-65
2023/06/07 04:36:25;;;;;;;14.13;7.63;;;;;;;17.13;54.56;101886.31;5085252;28;20024;-64
2023/06/07 04:38:51;;;;;;;14.32;7.50;;;;;;;17.24;54.21;101890.88;5070467;28;20063;-65
2023/06/07 04:41:16;;;;;;;17.45;7.90;;;;;;;17.16;54.59;101897.00;5087649;28;20107;-65
2023/06/07 04:43:42;;;;;;;11.60;7.63;;;;;;;17.21;54.42;101894.22;5061508;28;20453;-64
2023/06/07 04:46:09;;;;;;;16.85;7.57;;;;;;;17.23;54.38;101894.81;5061721;28;20608;-63
2023/06/07 04:48:41;;;;;;;11.55;7.55;;;;;;;17.18;54.40;101897.59;5073755;28;20547;-63
2023/06/07 04:51:07;;;;;;;14.82;8.10;;;;;;;17.25;54.39;101911.34;5050527;28;20040;-64
2023/06/07 04:53:36;;;;;;;12.77;7.65;;;;;;;17.19;54.34;101910.50;5050044;28;20066;-64
2023/06/07 04:56:02;;;;;;;15.35;8.13;;;;;;;17.20;54.38;101900.97;5056418;28;20020;-64
2023/06/07 04:58:27;;;;;;;15.90;8.80;;;;;;;17.23;54.35;101896.78;5066439;28;20037;-64
2023/06/07 05:00:53;;;;;;;14.80;8.90;;;;;;;17.15;54.49;101898.13;5059552;28;20670;-63
2023/06/07 05:03:21;;;;;;;12.77;7.95;;;;;;;17.06;54.81;101902.56;5066282;28;20032;-63
2023/06/07 05:05:48;;;;;;;16.25;8.15;;;;;;;17.10;54.92;101895.31;5076009;28;20425;-64
2023/06/07 05:08:14;;;;;;;12.48;8.13;;;;;;;17.21;54.30;101899.00;5063840;28;20029;-63
2023/06/07 05:10:40;;;;;;;11.93;7.75;;;;;;;17.19;54.41;101904.88;5050595;28;20040;-63
2023/06/07 05:13:05;;;;;;;11.50;7.40;;;;;;;17.20;54.27;101900.13;5048871;28;20572;-63
2023/06/07 05:15:31;;;;;;;13.82;8.30;;;;;;;17.14;54.48;101899.25;5075970;28;20552;-63
2023/06/07 05:17:56;;;;;;;15.98;7.55;;;;;;;17.21;54.26;101899.00;5067473;28;20032;-63
2023/06/07 05:20:24;;;;;;;12.13;8.23;;;;;;;17.16;54.59;101897.84;5069670;28;20059;-63
2023/06/07 05:22:49;;;;;;;14.82;7.68;;;;;;;17.15;54.70;101912.16;5074834;28;20510;-64
2023/06/07 05:25:15;;;;;;;16.65;8.00;;;;;;;17.02;54.70;101907.88;5070500;28;20025;-64
2023/06/07 05:27:41;;;;;;;13.18;7.75;;;;;;;17.06;54.75;101917.44;5069502;28;20021;-64
2023/06/07 05:30:07;;;;;;;13.57;8.07;;;;;;;17.11;54.63;101909.03;5069030;28;20068;-64
2023/06/07 05:32:34;;;;;;;15.90;7.82;;;;;;;17.03;55.10;101909.56;5068497;28;20111;-63
2023/06/07 05:34:59;;;;;;;14.18;8.18;;;;;;;16.96;55.12;101913.72;5062211;28;20741;-64
2023/06/07 05:37:25;;;;;;;13.32;7.93;;;;;;;17.05;54.97;101909.28;5084551;28;20108;-64
2023/06/07 05:39:51;;;;;;;14.77;7.53;;;;;;;17.07;54.95;101909.88;5088188;28;20063;-64
2023/06/07 05:42:17;;;;;;;15.30;7.93;;;;;;;17.04;54.74;101910.41;5076413;28;20031;-64
2023/06/07 05:44:45;;;;;;;12.52;7.90;;;;;;;17.06;54.93;101916.59;5092831;28;20372;-64
2023/06/07 05:47:10;;;;;;;14.90;8.00;;;;;;;17.11;54.53;101925.03;5088523;28;20536;-64
2023/06/07 05:49:35;;;;;;;11.45;8.07;;;;;;;17.05;54.63;101926.09;5065759;28;20033;-64
2023/06/07 05:52:00;;;;;;;15.52;8.48;;;;;;;17.06;54.69;101919.41;5082123;28;20043;-64
2023/06/07 05:54:26;;;;;;;16.42;7.80;;;;;;;17.07;54.68;101919.13;5065642;28;20444;-64
2023/06/07 05:56:52;;;;;;;13.32;8.02;;;;;;;17.06;54.52;101920.25;5065286;28;20128;-64
2023/06/07 05:59:17;;;;;;;16.40;8.52;;;;;;;17.08;54.85;101922.75;5069036;28;20036;-65
2023/06/07 06:01:44;;;;;;;13.70;8.25;;;;;;;17.14;54.69;101921.69;5065424;28;20028;-64
2023/06/07 06:04:10;;;;;;;14.43;7.82;;;;;;;17.13;54.73;101920.84;5064797;28;20025;-64
2023/06/07 06:06:36;;;;;;;13.00;8.18;;;;;;;17.15;54.73;101926.19;5062919;28;20506;-64
2023/06/07 06:09:02;;;;;;;14.52;8.25;;;;;;;17.22;54.64;101932.41;5079235;28;20033;-64
2023/06/07 06:11:28;;;;;;;14.45;8.30;;;;;;;17.22;54.77;101929.59;5070796;28;20029;-62
2023/06/07 06:13:53;;;;;;;13.88;8.27;;;;;;;17.22;54.63;101937.19;5081158;28;20036;-63
2023/06/07 06:16:18;;;;;;;11.98;8.07;;;;;;;17.25;54.62;101936.59;5074033;28;20028;-64
2023/06/07 06:18:44;;;;;;;15.48;7.90;;;;;;;17.31;54.20;101936.38;5064399;28;20353;-64
2023/06/07 06:21:09;;;;;;;15.30;8.73;;;;;;;17.29;54.55;101932.13;5074080;28;20036;-64
2023/06/07 06:23:35;;;;;;;11.93;8.23;;;;;;;17.31;54.18;101932.72;5063691;28;20025;-65
2023/06/07 06:26:00;;;;;;;15.30;8.52;;;;;;;17.25;54.35;101931.00;5071435;28;20078;-64
2023/06/07 06:28:26;;;;;;;15.32;7.93;;;;;;;17.30;54.33;101943.13;5073700;28;20245;-64
2023/06/07 06:30:51;;;;;;;15.50;8.93;;;;;;;17.26;54.50;101933.56;5071231;28;20109;-65
2023/06/07 06:33:16;;;;;;;21.63;8.98;;;;;;;17.21;54.28;101944.72;5072053;28;20123;-64
2023/06/07 06:35:42;;;;;;;19.10;8.77;;;;;;;17.24;54.44;101944.19;5064573;28;20029;-64
2023/06/07 06:38:07;;;;;;;14.23;9.00;;;;;;;17.21;54.42;101944.72;5066449;28;20497;-64
2023/06/07 06:40:32;;;;;;;14.82;8.00;;;;;;;17.23;54.33;101950.06;5066289;28;20028;-64
2023/06/07 06:42:59;;;;;;;15.10;8.15;;;;;;;17.26;54.78;101958.81;5050767;28;20047;-63
2023/06/07 06:45:25;;;;;;;13.15;7.82;;;;;;;17.28;54.03;101945.31;5053265;28;20033;-63
2023/06/07 06:47:51;;;;;;;18.77;8.45;;;;;;;17.23;54.32;101948.13;5070700;28;20491;-63
2023/06/07 06:50:16;;;;;;;16.40;8.15;;;;;;;17.28;54.23;101944.50;5070288;28;20122;-62
2023/06/07 06:52:42;;;;;;;11.20;7.97;;;;;;;17.29;54.44;101952.66;5071220;28;20048;-63
2023/06/07 06:55:08;;;;;;;15.48;8.15;;;;;;;17.23;54.39;101962.16;5064739;28;20040;-63
2023/06/07 06:57:35;;;;;;;15.15;8.63;;;;;;;17.23;54.46;101953.72;5071720;28;20351;-63
2023/06/07 07:00:00;;;;;;;12.23;8.10;;;;;;;17.22;54.54;101951.19;5086032;28;20071;-63
2023/06/07 07:02:26;;;;;;;12.23;7.97;;;;;;;17.19;54.50;101958.19;5065206;28;20032;-63
2023/06/07 07:04:52;;;;;;;14.82;8.20;;;;;;;17.10;54.74;101957.03;5057187;28;20039;-62
2023/06/07 07:07:18;;;;;;;16.90;8.15;;;;;;;17.18;54.25;101962.13;5067694;28;20817;-63
2023/06/07 07:09:43;;;;;;;16.92;8.60;;;;;;;17.23;54.36;101964.94;5065015;28;20062;-65
2023/06/07 07:12:10;;;;;;;17.88;8.65;;;;;;;17.18;54.43;101976.16;5065672;28;20088;-64
2023/06/07 07:14:36;;;;;;;17.25;9.43;;;;;;;17.19;54.69;101977.84;5061248;28;20472;-63
2023/06/07 07:17:01;;;;;;;17.40;8.73;;;;;;;17.27;54.53;101973.69;5052160;28;20032;-63
2023/06/07 07:19:26;;;;;;;15.32;7.93;;;;;;;17.35;54.48;101971.19;5050680;28;20044;-63
2023/06/07 07:21:52;;;;;;;16.00;8.30;;;;;;;17.40;54.51;101971.22;5067144;28;20048;-63
2023/06/07 07:24:17;;;;;;;15.88;8.60;;;;;;;17.46;54.51;101974.06;5084587;28;20029;-63
2023/06/07 07:26:43;;;;;;;18.65;8.40;;;;;;;17.42;54.08;101969.00;5062658;28;20086;-63
2023/06/07 07:29:08;;;;;;;14.23;8.25;;;;;;;17.56;54.03;101971.31;5056168;28;20129;-63
2023/06/07 07:31:33;;;;;;;16.65;8.18;;;;;;;17.61;53.98;101976.97;5063616;28;20097;-62
2023/06/07 07:34:00;;;;;;;16.08;8.10;;;;;;;17.69;53.78;101984.03;5060343;28;20056;-64
2023/06/07 07:36:26;;;;;;;15.20;8.20;;;;;;;17.60;53.72;101978.91;5062473;28;20365;-64
2023/06/07 07:38:52;;;;;;;15.02;8.80;;;;;;;17.68;53.67;101977.53;5074417;28;20039;-63
2023/06/07 07:41:17;;;;;;;15.95;7.70;;;;;;;17.73;53.98;101966.34;5068542;28;20032;-63
2023/06/07 07:43:43;;;;;;;17.10;8.63;;;;;;;17.74;53.47;101975.63;5090193;28;20070;-64
2023/06/07 07:46:08;;;;;;;14.85;8.13;;;;;;;17.77;53.41;101970.31;5091053;28;20487;-64
2023/06/07 07:48:34;;;;;;;13.63;7.68;;;;;;;17.90;53.16;101972.63;5090363;28;20435;-63
2023/06/07 07:50:59;;;;;;;16.20;7.90;;;;;;;17.89;53.32;101979.34;5091523;28;20028;-63
2023/06/07 07:53:25;;;;;;;17.85;8.02;;;;;;;17.93;53.52;101981.63;5077735;28;20056;-64
2023/06/07 07:55:50;;;;;;;19.15;8.70;;;;;;;17.88;53.10;101986.09;5070479;28;20029;-63
2023/06/07 07:58:16;;;;;;;16.08;8.25;;;;;;;17.89;53.06;101984.13;5070656;28;20021;-64
2023/06/07 08:00:41;;;;;;;13.20;7.65;;;;;;;17.88;53.00;101993.66;5070688;28;20085;-64
2023/06/07 08:03:08;;;;;;;16.38;7.90;;;;;;;17.89;53.21;101987.78;5070486;28;20553;-64
2023/06/07 08:05:33;;;;;;;22.45;8.10;;;;;;;17.87;53.62;101986.34;5069144;28;20666;-64
2023/06/07 08:07:58;;;;;;;18.13;7.90;;;;;;;17.89;53.37;101984.97;5070627;28;20044;-64
2023/06/07 08:10:24;;;;;;;17.17;7.80;;;;;;;17.92;53.40;101986.41;5064001;28;20032;-64
2023/06/07 08:12:50;;;;;;;17.10;7.85;;;;;;;17.90;53.16;101980.19;5069142;28;20055;-64
2023/06/07 08:15:15;;;;;;;16.75;8.18;;;;;;;18.06;53.03;101983.91;5069354;28;20029;-65
2023/06/07 08:17:41;;;;;;;17.25;8.02;;;;;;;18.17;52.99;101980.00;5070778;28;20036;-64
2023/06/07 08:20:08;;;;;;;17.92;8.18;;;;;;;18.34;53.18;101977.78;5070190;28;20078;-62
2023/06/07 08:22:33;;;;;;;11.57;7.40;;;;;;;18.48;52.44;101974.47;5069382;28;20031;-64
2023/06/07 08:24:59;;;;;;;12.18;8.02;;;;;;;18.63;52.17;101978.13;5070175;28;20025;-63
2023/06/07 08:27:24;;;;;;;13.98;7.78;;;;;;;18.73;52.52;101977.31;5067298;28;20017;-63
2023/06/07 08:29:50;;;;;;;17.73;8.60;;;;;;;18.73;51.78;101974.50;5068443;28;20028;-64
2023/06/07 08:32:15;;;;;;;18.35;8.43;;;;;;;18.72;51.63;101971.97;5069643;28;20028;-63
2023/06/07 08:34:41;;;;;;;15.48;8.32;;;;;;;18.84;51.79;101979.00;5070342;28;20057;-63
2023/06/07 08:37:07;;;;;;;14.90;8.00;;;;;;;18.92;51.20;101969.16;5069163;28;20040;-64
2023/06/07 08:39:32;;;;;;;18.10;8.10;;;;;;;19.00;51.25;101970.56;5069764;28;20036;-63
2023/06/07 08:41:57;;;;;;;15.77;8.15;;;;;;;19.08;50.98;101969.97;5069809;28;20060;-63
2023/06/07 08:44:23;;;;;;;15.25;7.60;;;;;;;19.18;50.56;101971.91;5060857;28;20028;-63
2023/06/07 08:46:49;;;;;;;19.10;8.07;;;;;;;19.24;50.72;101966.00;5064817;28;20040;-63
2023/06/07 08:49:16;;;;;;;18.40;8.50;;;;;;;19.29;50.65;101979.22;5069939;28;20571;-63
2023/06/07 08:51:42;;;;;;;17.05;8.20;;;;;;;19.43;51.36;101960.63;5069245;28;20047;-63
2023/06/07 08:54:10;;;;;;;14.45;8.38;;;;;;;19.54;51.15;101961.44;5070250;28;20066;-63
2023/06/07 08:56:38;;;;;;;16.25;8.05;;;;;;;19.61;49.97;101964.81;5066462;28;20115;-64
2023/06/07 08:59:04;;;;;;;15.48;7.88;;;;;;;19.68;49.59;101959.72;5064696;28;20543;-64
2023/06/07 09:01:34;;;;;;;15.50;8.23;;;;;;;19.76;49.67;101967.56;5069174;28;20127;-63
2023/06/07 09:04:00;;;;;;;15.88;8.10;;;;;;;19.71;49.97;101964.78;5070059;28;20024;-63
2023/06/07 09:06:26;;;;;;;18.73;8.45;;;;;;;19.79;49.76;101978.25;5068759;28;20058;-63
2023/06/07 09:08:52;;;;;;;17.45;8.00;;;;;;;19.84;49.91;101966.13;5069506;28;20468;-63
2023/06/07 09:11:18;;;;;;;14.75;8.77;;;;;;;19.82;49.78;101974.88;5069806;28;20039;-63
2023/06/07 09:13:43;;;;;;;22.33;9.20;;;;;;;19.93;49.81;101966.38;5062394;28;20037;-63
2023/06/07 09:16:12;;;;;;;18.92;8.00;;;;;;;20.01;49.91;101968.59;5069059;28;20032;-63
2023/06/07 09:18:42;;;;;;;15.80;8.90;;;;;;;20.08;49.65;101966.28;5069152;28;20110;-63
2023/06/07 09:21:27;;;;;;;16.63;7.68;;;;;;;20.18;49.62;101973.84;5069655;28;20063;-63
2023/06/07 09:23:55;;;;;;;15.88;8.13;;;;;;;20.17;49.33;101973.00;5069705;28;20031;-63
2023/06/07 09:26:22;;;;;;;17.85;8.07;;;;;;;20.20;48.71;101963.97;5068905;28;20464;-63
2023/06/07 09:28:48;;;;;;;13.48;7.55;;;;;;;20.15;48.32;101965.97;5069640;28;20496;-63
2023/06/07 09:31:29;;;;;;;16.17;7.93;;;;;;;20.13;49.00;101960.63;5069826;28;20025;-63
2023/06/07 09:33:55;;;;;;;17.05;7.93;;;;;;;20.03;48.35;101969.97;5064931;28;20037;-63
2023/06/07 09:36:21;;;;;;;15.48;7.97;;;;;;;19.98;49.11;101967.19;5069588;28;20405;-64
2023/06/07 09:38:46;;;;;;;17.27;8.02;;;;;;;19.99;48.94;101965.22;5069458;28;20039;-63
2023/06/07 09:41:13;;;;;;;13.65;8.13;;;;;;;19.99;48.74;101970.84;5068942;28;20039;-63
2023/06/07 09:43:53;;;;;;;13.93;8.68;;;;;;;20.01;48.99;101968.59;5069592;28;20020;-63
2023/06/07 09:46:19;;;;;;;16.60;8.48;;;;;;;19.95;48.73;101964.94;5069049;28;20033;-63
2023/06/07 09:48:50;;;;;;;14.88;7.90;;;;;;;19.97;49.24;101956.22;5066377;28;20032;-63
2023/06/07 09:51:16;;;;;;;14.45;8.23;;;;;;;20.01;49.29;101951.69;5068009;28;20108;-63
2023/06/07 09:54:01;;;;;;;16.95;8.32;;;;;;;20.06;49.31;101951.66;5069273;28;20060;-63
2023/06/07 09:56:27;;;;;;;15.82;8.10;;;;;;;20.08;48.89;101953.06;5069369;28;20032;-63
2023/06/07 09:59:07;;;;;;;11.20;7.38;;;;;;;20.21;49.55;101964.81;5069714;28;20028;-63
2023/06/07 10:01:43;;;;;;;15.80;9.13;;;;;;;20.16;49.06;101954.44;5068544;28;20147;-63
2023/06/07 10:04:09;;;;;;;14.65;7.90;;;;;;;20.16;49.39;101960.06;5067828;28;20054;-63
2023/06/07 10:06:41;;;;;;;13.95;7.32;;;;;;;20.15;48.74;101963.16;5066837;28;20033;-63
2023/06/07 10:09:07;;;;;;;15.27;8.52;;;;;;;20.11;49.03;101960.91;5068538;28;20059;-63
2023/06/07 10:11:34;;;;;;;18.15;9.23;;;;;;;20.07;48.93;101961.78;5069449;28;20024;-63
2023/06/07 10:14:05;;;;;;;17.50;9.13;;;;;;;20.07;49.45;101959.81;5069595;28;20036;-63
2023/06/07 10:16:34;;;;;;;16.43;8.47;;;;;;;20.05;49.43;101953.63;5068347;28;20204;-63
2023/06/07 10:19:03;;;;;;;18.38;9.85;;;;;;;20.08;49.58;101957.81;5069622;28;20028;-63
2023/06/07 10:21:31;;;;;;;13.73;8.20;;;;;;;20.13;49.82;101956.97;5063094;28;20036;-64
2023/06/07 10:24:04;;;;;;;17.85;9.05;;;;;;;20.10;49.83;101944.31;5067735;28;20395;-63
2023/06/07 10:26:42;;;;;;;14.63;7.97;;;;;;;20.21;49.64;101957.19;5069466;28;20062;-63
2023/06/07 10:29:11;;;;;;;16.88;9.57;;;;;;;20.17;49.13;101956.09;5071345;28;20085;-64
2023/06/07 10:31:44;;;;;;;15.20;8.13;;;;;;;20.18;49.67;101969.06;5072605;28;20487;-64
2023/06/07 10:34:10;;;;;;;13.65;8.50;;;;;;;20.18;49.17;101954.13;5073408;28;20060;-63
2023/06/07 10:36:38;;;;;;;18.95;9.00;;;;;;;20.17;49.55;101953.28;5071877;28;20428;-63
2023/06/07 10:39:06;;;;;;;12.82;8.10;;;;;;;20.18;49.75;101951.31;5067985;28;20024;-63
2023/06/07 10:41:34;;;;;;;18.25;8.73;;;;;;;20.12;49.75;101958.94;5072404;28;20067;-64
2023/06/07 10:44:01;;;;;;;17.13;8.55;;;;;;;20.09;50.19;101951.91;5071841;28;20024;-63
2023/06/07 10:46:27;;;;;;;17.20;9.00;;;;;;;20.06;50.58;101946.00;5072291;28;20040;-63
2023/06/07 10:48:54;;;;;;;12.23;8.43;;;;;;;20.07;51.67;101956.16;5072282;28;20384;-63
2023/06/07 10:51:43;;;;;;;16.23;8.95;;;;;;;20.09;51.10;101949.09;5070334;28;20111;-64
2023/06/07 10:54:09;;;;;;;16.95;9.43;;;;;;;20.00;50.28;101955.63;5071510;28;20036;-64
2023/06/07 10:56:36;;;;;;;15.20;9.60;;;;;;;19.96;50.26;101958.16;5067866;28;20029;-64
2023/06/07 10:59:14;;;;;;;16.95;9.35;;;;;;;19.93;50.72;101955.97;5071096;28;20071;-64
2023/06/07 11:01:40;;;;;;;20.05;9.07;;;;;;;19.94;51.23;101945.53;5061724;28;20119;-64
2023/06/07 11:04:05;;;;;;;18.77;9.57;;;;;;;19.99;50.71;101953.94;5083715;28;20099;-63
2023/06/07 11:06:34;;;;;;;14.68;8.95;;;;;;;20.00;50.71;101945.22;5091275;28;20619;-64
2023/06/07 11:09:18;;;;;;;10.43;6.97;;;;;;;20.09;51.55;101943.47;5072963;28;20113;-62
2023/06/07 11:11:44;;;;;;;15.57;7.90;;;;;;;20.09;50.46;101949.09;5071314;28;20492;-63
2023/06/07 11:14:13;;;;;;;11.70;6.75;;;;;;;20.19;53.13;101942.53;5065562;28;20020;-63